createdAt,value
2018-12-14T00:02:01.749Z,100.00
2018-12-14T00:04:30.900Z,100.00
2018-12-14T00:07:00.050Z,100.00
2018-12-14T00:09:29.206Z,100.00
2018-12-14T00:11:58.372Z,100.00
2018-12-14T00:14:27.519Z,100.00
2018-12-14T00:16:56.688Z,100.00
2018-12-14T00:19:25.895Z,100.00
2018-12-14T00:21:55.048Z,100.00
2018-12-14T00:24:24.201Z,100.00
2018-12-14T00:26:53.362Z,100.00
2018-12-14T00:29:22.469Z,100.00
2018-12-14T00:31:51.578Z,100.00
2018-12-14T00:34:20.650Z,100.00
2018-12-14T00:36:49.857Z,100.00
2018-12-14T00:39:18.975Z,100.00
2018-12-14T00:41:51.889Z,100.00
2018-12-14T00:44:19.253Z,100.00
2018-12-14T00:46:48.372Z,100.00
2018-12-14T00:49:17.496Z,100.00
2018-12-14T00:51:46.640Z,100.00
2018-12-14T00:54:15.756Z,100.00
2018-12-14T00:56:44.886Z,100.00
2018-12-14T00:59:13.996Z,100.00
2018-12-14T01:01:43.157Z,100.00
2018-12-14T01:04:12.277Z,100.00
2018-12-14T01:06:41.445Z,100.00
2018-12-14T01:09:10.554Z,100.00
2018-12-14T01:11:39.699Z,100.00
2018-12-14T01:14:08.884Z,100.00
2018-12-14T01:16:38.023Z,100.00
2018-12-14T01:19:07.146Z,100.00
2018-12-14T01:21:36.556Z,100.00
2018-12-14T01:24:05.684Z,100.00
2018-12-14T01:26:34.819Z,100.00
2018-12-14T01:29:03.916Z,100.00
2018-12-14T01:31:33.024Z,100.00
2018-12-14T01:34:32.705Z,100.00
2018-12-14T01:37:01.812Z,100.00
2018-12-14T01:39:31.037Z,100.00
2018-12-14T01:42:04.773Z,100.00
2018-12-14T01:44:31.285Z,100.00
2018-12-14T01:47:00.409Z,100.00
2018-12-14T01:49:29.517Z,100.00
2018-12-14T01:51:58.643Z,100.00
2018-12-14T01:54:27.765Z,100.00
2018-12-14T01:56:56.913Z,100.00
2018-12-14T01:59:26.018Z,100.00
2018-12-14T02:01:55.139Z,100.00
2018-12-14T02:04:24.262Z,100.00
2018-12-14T02:06:53.380Z,100.00
2018-12-14T02:09:22.537Z,100.00
2018-12-14T02:11:51.672Z,100.00
2018-12-14T02:14:20.815Z,100.00
2018-12-14T02:16:49.961Z,100.00
2018-12-14T02:19:19.089Z,100.00
2018-12-14T02:21:48.225Z,100.00
2018-12-14T02:24:17.334Z,100.00
2018-12-14T02:26:46.458Z,100.00
2018-12-14T02:29:15.586Z,100.00
2018-12-14T02:31:44.700Z,100.00
2018-12-14T02:34:13.813Z,100.00
2018-12-14T02:36:42.977Z,100.00
2018-12-14T02:39:12.173Z,100.00
2018-12-14T02:41:41.280Z,100.00
2018-12-14T02:44:10.400Z,100.00
2018-12-14T02:46:39.509Z,100.00
2018-12-14T02:49:08.646Z,100.00
2018-12-14T02:51:38.013Z,100.00
2018-12-14T02:54:07.140Z,100.00
2018-12-14T02:56:36.268Z,100.00
2018-12-14T02:59:05.391Z,100.00
2018-12-14T03:01:34.525Z,100.00
2018-12-14T03:04:03.632Z,100.00
2018-12-14T03:06:39.116Z,100.00
2018-12-14T03:09:08.293Z,100.00
2018-12-14T03:11:37.410Z,100.00
2018-12-14T03:14:06.517Z,100.00
2018-12-14T03:16:35.661Z,100.00
2018-12-14T03:19:04.794Z,100.00
2018-12-14T03:21:33.932Z,100.00
2018-12-14T03:24:03.051Z,100.00
2018-12-14T03:26:32.194Z,100.00
2018-12-14T03:29:01.782Z,100.00
2018-12-14T03:31:30.918Z,100.00
2018-12-14T03:34:00.044Z,100.00
2018-12-14T03:36:29.170Z,100.00
2018-12-14T03:38:58.285Z,100.00
2018-12-14T03:41:27.772Z,100.00
2018-12-14T03:43:56.900Z,100.00
2018-12-14T03:46:26.030Z,100.00
2018-12-14T03:48:55.161Z,100.00
2018-12-14T03:51:29.080Z,100.00
2018-12-14T03:53:58.267Z,100.00
2018-12-14T03:56:27.394Z,100.00
2018-12-14T03:58:56.485Z,100.00
2018-12-14T04:01:25.614Z,100.00
2018-12-14T04:03:54.753Z,100.00
2018-12-14T04:06:23.874Z,100.00
2018-12-14T04:08:52.975Z,100.00
2018-12-14T04:11:22.094Z,100.00
2018-12-14T04:13:51.259Z,100.00
2018-12-14T04:16:20.389Z,100.00
2018-12-14T04:18:49.526Z,100.00
2018-12-14T04:21:18.639Z,100.00
2018-12-14T04:23:47.771Z,100.00
2018-12-14T04:26:16.876Z,100.00
2018-12-14T04:28:46.018Z,100.00
2018-12-14T04:31:15.186Z,100.00
2018-12-14T04:33:44.465Z,100.00
2018-12-14T04:36:13.564Z,100.00
2018-12-14T04:38:42.675Z,100.00
2018-12-14T04:41:11.889Z,100.00
2018-12-14T04:43:40.988Z,100.00
2018-12-14T04:46:10.128Z,100.00
2018-12-14T04:48:39.244Z,100.00
2018-12-14T04:51:09.242Z,100.00
2018-12-14T04:53:38.391Z,100.00
2018-12-14T04:56:07.493Z,100.00
2018-12-14T04:58:36.628Z,100.00
2018-12-14T05:01:05.782Z,100.00
2018-12-14T05:03:35.417Z,100.00
2018-12-14T05:06:04.529Z,100.00
2018-12-14T05:08:33.678Z,100.00
2018-12-14T05:11:02.789Z,100.00
2018-12-14T05:13:31.898Z,100.00
2018-12-14T05:16:01.010Z,100.00
2018-12-14T05:18:30.149Z,100.00
2018-12-14T05:20:59.264Z,100.00
2018-12-14T05:23:28.373Z,100.00
2018-12-14T05:25:57.488Z,100.00
2018-12-14T05:28:26.624Z,100.00
2018-12-14T05:30:55.765Z,100.00
2018-12-14T05:33:24.892Z,100.00
2018-12-14T05:35:54.024Z,100.00
2018-12-14T05:38:23.161Z,100.00
2018-12-14T05:40:52.273Z,100.00
2018-12-14T05:43:21.400Z,100.00
2018-12-14T05:45:50.541Z,100.00
2018-12-14T05:48:19.692Z,100.00
2018-12-14T05:50:48.801Z,100.00
2018-12-14T05:53:17.929Z,100.00
2018-12-14T05:55:47.034Z,100.00
2018-12-14T05:58:16.341Z,100.00
2018-12-14T06:00:45.590Z,100.00
2018-12-14T06:03:14.907Z,100.00
2018-12-14T06:05:44.065Z,100.00
2018-12-14T06:08:13.201Z,100.00
2018-12-14T06:10:42.322Z,100.00
2018-12-14T06:13:11.649Z,100.00
2018-12-14T06:15:41.024Z,100.00
2018-12-14T06:18:10.141Z,100.00
2018-12-14T06:20:39.230Z,100.00
2018-12-14T06:23:08.337Z,100.00
2018-12-14T06:25:37.480Z,100.00
2018-12-14T06:28:06.701Z,100.00
2018-12-14T06:30:35.777Z,100.00
2018-12-14T06:33:04.881Z,100.00
2018-12-14T06:35:33.980Z,100.00
2018-12-14T06:38:03.104Z,100.00
2018-12-14T06:40:32.196Z,100.00
2018-12-14T06:43:01.314Z,100.00
2018-12-14T06:45:30.444Z,100.00
2018-12-14T06:48:05.983Z,100.00
2018-12-14T06:50:35.156Z,100.00
2018-12-14T06:53:04.540Z,100.00
2018-12-14T06:55:33.639Z,100.00
2018-12-14T06:58:02.718Z,100.00
2018-12-14T07:00:31.820Z,99.99
2018-12-14T07:03:00.953Z,99.76
2018-12-14T07:05:30.029Z,98.31
2018-12-14T07:07:59.126Z,98.14
2018-12-14T07:10:28.223Z,98.02
2018-12-14T07:12:57.349Z,97.23
2018-12-14T07:15:26.442Z,97.05
2018-12-14T07:17:55.555Z,96.62
2018-12-14T07:20:24.633Z,95.61
2018-12-14T07:22:53.720Z,94.30
2018-12-14T07:25:22.812Z,95.24
2018-12-14T07:27:51.937Z,95.34
2018-12-14T07:30:21.021Z,94.42
2018-12-14T07:32:50.136Z,93.57
2018-12-14T07:35:19.252Z,92.93
2018-12-14T07:37:48.338Z,92.93
2018-12-14T07:40:17.456Z,92.00
2018-12-14T07:42:46.586Z,90.12
2018-12-14T07:45:15.758Z,89.62
2018-12-14T07:47:44.856Z,87.97
2018-12-14T07:50:13.957Z,87.00
2018-12-14T07:52:43.069Z,85.19
2018-12-14T07:55:12.168Z,82.40
2018-12-14T07:57:41.273Z,81.02
2018-12-14T08:00:10.508Z,79.24
2018-12-14T08:02:39.619Z,78.60
2018-12-14T08:05:08.911Z,78.30
2018-12-14T08:07:38.024Z,78.72
2018-12-14T08:10:07.321Z,77.65
2018-12-14T08:12:36.430Z,74.76
2018-12-14T08:15:11.112Z,74.04
2018-12-14T08:17:36.840Z,70.57
2018-12-14T08:20:06.043Z,72.04
2018-12-14T08:22:35.218Z,70.46
2018-12-14T08:25:04.538Z,69.87
2018-12-14T08:27:33.715Z,68.97
2018-12-14T08:30:02.835Z,70.47
2018-12-14T08:32:31.953Z,71.80
2018-12-14T08:35:01.093Z,70.93
2018-12-14T08:37:30.296Z,70.94
2018-12-14T08:39:59.423Z,69.61
2018-12-14T08:42:28.530Z,69.75
2018-12-14T08:44:57.705Z,71.64
2018-12-14T08:47:26.827Z,70.71
2018-12-14T08:49:55.971Z,70.89
2018-12-14T08:52:25.073Z,72.74
2018-12-14T08:54:54.181Z,73.45
2018-12-14T08:57:23.363Z,72.85
2018-12-14T08:59:52.461Z,73.26
2018-12-14T09:02:21.580Z,72.74
2018-12-14T09:04:50.710Z,71.94
2018-12-14T09:07:24.506Z,69.93
2018-12-14T09:09:51.670Z,70.78
2018-12-14T09:12:20.809Z,71.75
2018-12-14T09:14:49.949Z,72.65
2018-12-14T09:17:19.047Z,73.93
2018-12-14T09:19:49.030Z,75.82
2018-12-14T09:22:18.105Z,76.09
2018-12-14T09:24:47.209Z,75.03
2018-12-14T09:27:16.313Z,72.25
2018-12-14T09:29:45.446Z,72.79
2018-12-14T09:32:14.561Z,71.96
2018-12-14T09:34:43.847Z,73.52
2018-12-14T09:37:12.954Z,72.88
2018-12-14T09:39:42.063Z,73.75
2018-12-14T09:42:11.177Z,73.01
2018-12-14T09:44:40.312Z,74.36
2018-12-14T09:47:09.435Z,72.97
2018-12-14T09:49:38.548Z,72.74
2018-12-14T09:52:07.652Z,71.92
2018-12-14T09:54:36.774Z,70.76
2018-12-14T09:57:05.913Z,71.91
2018-12-14T09:59:35.028Z,72.09
2018-12-14T10:02:04.147Z,72.29
2018-12-14T10:04:34.267Z,71.12
2018-12-14T10:07:03.406Z,70.33
2018-12-14T10:09:32.533Z,69.28
2018-12-14T10:12:01.662Z,68.86
2018-12-14T10:14:30.790Z,70.04
2018-12-14T10:16:59.903Z,66.84
2018-12-14T10:19:28.981Z,66.54
2018-12-14T10:21:58.101Z,65.74
2018-12-14T10:24:27.297Z,67.04
2018-12-14T10:26:56.502Z,68.55
2018-12-14T10:29:25.576Z,67.56
2018-12-14T10:31:54.677Z,67.80
2018-12-14T10:34:23.797Z,68.35
2018-12-14T10:36:52.917Z,68.64
2018-12-14T10:39:22.069Z,69.02
2018-12-14T10:41:51.204Z,68.20
2018-12-14T10:44:20.323Z,68.73
2018-12-14T10:46:49.452Z,68.58
2018-12-14T10:49:18.565Z,69.92
2018-12-14T10:51:47.838Z,69.18
2018-12-14T10:54:17.222Z,69.46
2018-12-14T10:56:46.352Z,66.87
2018-12-14T10:59:15.476Z,67.22
2018-12-14T11:01:49.705Z,65.72
2018-12-14T11:04:18.832Z,67.50
2018-12-14T11:06:47.939Z,68.29
2018-12-14T11:09:17.052Z,68.41
2018-12-14T11:11:46.256Z,68.59
2018-12-14T11:14:15.358Z,69.05
2018-12-14T11:16:44.474Z,68.37
2018-12-14T11:19:13.625Z,67.30
2018-12-14T11:21:42.773Z,66.88
2018-12-14T11:24:11.885Z,66.27
2018-12-14T11:26:41.010Z,66.10
2018-12-14T11:29:10.124Z,67.07
2018-12-14T11:31:39.249Z,67.07
2018-12-14T11:34:08.337Z,66.57
2018-12-14T11:36:38.179Z,68.16
2018-12-14T11:39:07.741Z,67.47
2018-12-14T11:41:37.062Z,67.26
2018-12-14T11:44:06.128Z,68.65
2018-12-14T11:46:35.273Z,69.22
2018-12-14T11:49:04.385Z,69.57
2018-12-14T11:51:33.488Z,69.92
2018-12-14T11:54:02.577Z,69.04
2018-12-14T11:56:31.732Z,70.17
2018-12-14T11:59:00.857Z,70.88
2018-12-14T12:01:30.057Z,71.56
2018-12-14T12:03:59.116Z,70.37
2018-12-14T12:06:28.239Z,71.27
2018-12-14T12:08:57.349Z,71.28
2018-12-14T12:11:26.484Z,70.79
2018-12-14T12:13:55.576Z,72.34
2018-12-14T12:16:24.688Z,73.31
2018-12-14T12:18:53.862Z,71.11
2018-12-14T12:21:22.957Z,71.46
2018-12-14T12:23:55.232Z,72.76
2018-12-14T12:26:23.190Z,72.34
2018-12-14T12:28:52.307Z,71.74
2018-12-14T12:31:21.428Z,70.91
2018-12-14T12:33:50.573Z,70.73
2018-12-14T12:36:19.725Z,71.31
2018-12-14T12:38:48.873Z,70.07
2018-12-14T12:41:18.004Z,69.86
2018-12-14T12:43:47.133Z,70.29
2018-12-14T12:46:16.242Z,69.99
2018-12-14T12:48:45.608Z,70.39
2018-12-14T12:51:14.999Z,71.45
2018-12-14T12:53:44.089Z,72.40
2018-12-14T12:56:13.482Z,71.63
2018-12-14T12:58:42.622Z,73.67
2018-12-14T13:01:11.708Z,73.83
2018-12-14T13:03:40.805Z,74.51
2018-12-14T13:06:09.918Z,74.02
2018-12-14T13:08:39.588Z,73.97
2018-12-14T13:11:08.705Z,74.47
2018-12-14T13:13:37.801Z,75.50
2018-12-14T13:16:06.967Z,74.96
2018-12-14T13:18:36.112Z,76.10
2018-12-14T13:21:05.202Z,76.90
2018-12-14T13:23:34.349Z,78.58
2018-12-14T13:26:03.494Z,78.11
2018-12-14T13:28:32.857Z,77.72
2018-12-14T13:31:02.034Z,78.55
2018-12-14T13:33:31.278Z,78.61
2018-12-14T13:36:00.448Z,79.48
2018-12-14T13:38:29.529Z,79.56
2018-12-14T13:40:58.641Z,79.27
2018-12-14T13:43:27.817Z,78.96
2018-12-14T13:45:56.929Z,79.71
2018-12-14T13:48:26.043Z,79.45
2018-12-14T13:50:55.215Z,79.23
2018-12-14T13:53:24.333Z,79.37
2018-12-14T13:55:53.451Z,79.10
2018-12-14T13:58:22.539Z,79.19
2018-12-14T14:00:51.657Z,79.87
2018-12-14T14:03:20.765Z,80.20
2018-12-14T14:05:49.873Z,80.01
2018-12-14T14:08:19.084Z,80.43
2018-12-14T14:10:48.218Z,81.41
2018-12-14T14:13:17.351Z,82.01
2018-12-14T14:15:50.748Z,82.47
2018-12-14T14:18:17.631Z,83.23
2018-12-14T14:20:46.759Z,83.87
2018-12-14T14:23:15.888Z,84.27
2018-12-14T14:25:45.309Z,85.08
2018-12-14T14:28:14.397Z,84.96
2018-12-14T14:30:43.477Z,84.94
2018-12-14T14:33:12.572Z,84.71
2018-12-14T14:35:41.680Z,84.19
2018-12-14T14:38:10.778Z,84.88
2018-12-14T14:40:39.917Z,84.75
2018-12-14T14:43:09.021Z,84.31
2018-12-14T14:45:38.158Z,83.93
2018-12-14T14:48:07.345Z,84.58
2018-12-14T14:50:36.458Z,84.97
2018-12-14T14:53:05.579Z,85.28
2018-12-14T14:55:34.680Z,85.35
2018-12-14T14:58:03.798Z,85.67
2018-12-14T15:00:33.466Z,85.26
2018-12-14T15:03:02.916Z,85.67
2018-12-14T15:05:32.047Z,85.25
2018-12-14T15:08:02.202Z,86.00
2018-12-14T15:10:31.321Z,86.23
2018-12-14T15:13:00.448Z,85.65
2018-12-14T15:15:29.566Z,85.33
2018-12-14T15:17:58.695Z,86.04
2018-12-14T15:20:27.799Z,86.70
2018-12-14T15:22:56.926Z,87.27
2018-12-14T15:25:26.020Z,88.12
2018-12-14T15:27:55.118Z,89.13
2018-12-14T15:30:24.220Z,89.02
2018-12-14T15:32:53.332Z,89.19
2018-12-14T15:35:22.516Z,89.53
2018-12-14T15:37:51.706Z,89.60
2018-12-14T15:40:20.833Z,89.98
2018-12-14T15:42:49.977Z,90.25
2018-12-14T15:45:19.081Z,90.42
2018-12-14T15:47:48.203Z,90.73
2018-12-14T15:50:17.325Z,90.75
2018-12-14T15:52:46.451Z,91.31
2018-12-14T15:55:15.538Z,91.56
2018-12-14T15:57:44.653Z,91.20
2018-12-14T16:00:13.753Z,90.81
2018-12-14T16:02:42.846Z,91.28
2018-12-14T16:05:11.965Z,92.23
2018-12-14T16:07:41.079Z,93.50
2018-12-14T16:10:10.204Z,94.13
2018-12-14T16:12:39.333Z,95.19
2018-12-14T16:15:09.026Z,95.57
2018-12-14T16:17:38.175Z,95.82
2018-12-14T16:20:09.187Z,96.34
2018-12-14T16:22:38.306Z,96.79
2018-12-14T16:25:08.336Z,97.46
2018-12-14T16:27:37.988Z,98.29
2018-12-14T16:30:09.513Z,98.50
2018-12-14T16:32:38.628Z,98.47
2018-12-14T16:35:07.746Z,98.37
2018-12-14T16:37:36.915Z,99.12
2018-12-14T16:40:06.576Z,98.98
2018-12-14T16:42:35.804Z,100.00
2018-12-14T16:45:04.986Z,99.91
2018-12-14T16:47:34.126Z,100.00
2018-12-14T16:50:03.215Z,100.00
2018-12-14T16:52:32.354Z,100.00
2018-12-14T16:55:01.481Z,100.00
2018-12-14T16:57:30.584Z,100.00
2018-12-14T16:59:59.769Z,100.00
2018-12-14T17:02:28.881Z,100.00
2018-12-14T17:04:58.021Z,100.00
2018-12-14T17:07:27.165Z,100.00
2018-12-14T17:09:56.289Z,100.00
2018-12-14T17:12:25.509Z,100.00
2018-12-14T17:14:54.606Z,100.00
2018-12-14T17:17:23.876Z,100.00
2018-12-14T17:19:53.021Z,100.00
2018-12-14T17:22:22.148Z,100.00
2018-12-14T17:24:51.254Z,100.00
2018-12-14T17:27:20.652Z,100.00
2018-12-14T17:29:49.785Z,100.00
2018-12-14T17:32:18.928Z,100.00
2018-12-14T17:34:48.053Z,100.00
2018-12-14T17:37:17.180Z,100.00
2018-12-14T17:39:46.306Z,100.00
2018-12-14T17:42:15.439Z,100.00
2018-12-14T17:44:44.761Z,100.00
2018-12-14T17:47:13.913Z,100.00
2018-12-14T17:49:43.020Z,100.00
2018-12-14T17:52:12.164Z,100.00
2018-12-14T17:54:41.301Z,100.00
2018-12-14T17:57:10.429Z,100.00
2018-12-14T17:59:39.544Z,100.00
2018-12-14T18:02:08.724Z,100.00
2018-12-14T18:04:37.861Z,100.00
2018-12-14T18:07:07.015Z,100.00
2018-12-14T18:09:36.174Z,100.00
2018-12-14T18:12:05.347Z,100.00
2018-12-14T18:14:34.494Z,100.00
2018-12-14T18:17:03.618Z,100.00
2018-12-14T18:19:32.791Z,100.00
2018-12-14T18:22:01.931Z,100.00
2018-12-14T18:24:31.091Z,100.00
2018-12-14T18:27:00.225Z,100.00
2018-12-14T18:29:29.387Z,100.00
2018-12-14T18:32:12.831Z,100.00
2018-12-14T18:34:42.014Z,100.00
2018-12-14T18:37:11.259Z,100.00
2018-12-14T18:39:40.429Z,100.00
2018-12-14T18:42:09.596Z,100.00
2018-12-14T18:44:38.884Z,100.00
2018-12-14T18:47:08.155Z,100.00
2018-12-14T18:49:37.335Z,100.00
2018-12-14T18:52:06.484Z,100.00
2018-12-14T18:54:35.630Z,100.00
2018-12-14T18:57:04.777Z,100.00
2018-12-14T18:59:33.938Z,100.00
2018-12-14T19:02:03.049Z,100.00
2018-12-14T19:04:32.169Z,100.00
2018-12-14T19:07:01.569Z,100.00
2018-12-14T19:09:30.713Z,100.00
2018-12-14T19:11:59.822Z,100.00
2018-12-14T19:14:28.941Z,100.00
2018-12-14T19:16:58.103Z,100.00
2018-12-14T19:19:27.251Z,100.00
2018-12-14T19:21:56.374Z,100.00
2018-12-14T19:24:25.505Z,100.00
2018-12-14T19:26:54.627Z,100.00
2018-12-14T19:29:23.737Z,100.00
2018-12-14T19:31:52.867Z,100.00
2018-12-14T19:34:21.982Z,100.00
2018-12-14T19:36:51.107Z,100.00
2018-12-14T19:39:20.409Z,100.00
2018-12-14T19:41:49.561Z,100.00
2018-12-14T19:44:18.698Z,100.00
2018-12-14T19:46:47.833Z,100.00
2018-12-14T19:49:16.970Z,100.00
2018-12-14T19:51:46.082Z,100.00
2018-12-14T19:54:15.260Z,100.00
2018-12-14T19:56:44.573Z,100.00
2018-12-14T19:59:13.685Z,100.00
2018-12-14T20:01:42.880Z,100.00
2018-12-14T20:04:11.983Z,100.00
2018-12-14T20:06:41.134Z,100.00
2018-12-14T20:09:10.240Z,100.00
2018-12-14T20:11:39.350Z,100.00
2018-12-14T20:14:09.007Z,100.00
2018-12-14T20:16:38.339Z,100.00
2018-12-14T20:19:07.451Z,100.00
2018-12-14T20:21:36.566Z,100.00
2018-12-14T20:24:05.718Z,100.00
2018-12-14T20:26:34.837Z,100.00
2018-12-14T20:29:03.949Z,100.00
2018-12-14T20:31:33.049Z,100.00
2018-12-14T20:34:02.190Z,100.00
2018-12-14T20:36:31.295Z,100.00
2018-12-14T20:39:00.465Z,100.00
2018-12-14T20:41:29.609Z,100.00
2018-12-14T20:43:58.717Z,100.00
2018-12-14T20:46:27.849Z,100.00
2018-12-14T20:48:56.959Z,100.00
2018-12-14T20:51:26.046Z,100.00
2018-12-14T20:53:56.268Z,100.00
2018-12-14T20:56:25.357Z,100.00
2018-12-14T20:58:54.473Z,100.00
2018-12-14T21:01:23.572Z,100.00
2018-12-14T21:03:52.708Z,100.00
2018-12-14T21:06:21.820Z,100.00
2018-12-14T21:08:50.941Z,100.00
2018-12-14T21:11:20.058Z,100.00
2018-12-14T21:13:49.199Z,100.00
2018-12-14T21:16:18.341Z,100.00
2018-12-14T21:18:47.466Z,100.00
2018-12-14T21:21:16.573Z,100.00
2018-12-14T21:23:45.691Z,100.00
2018-12-14T21:26:14.786Z,100.00
2018-12-14T21:28:43.890Z,100.00
2018-12-14T21:31:12.985Z,100.00
2018-12-14T21:33:42.086Z,100.00
2018-12-14T21:36:11.201Z,100.00
2018-12-14T21:38:40.320Z,100.00
2018-12-14T21:41:09.426Z,100.00
2018-12-14T21:43:38.537Z,100.00
2018-12-14T21:46:07.661Z,100.00
2018-12-14T21:48:36.765Z,100.00
2018-12-14T21:51:05.852Z,100.00
2018-12-14T21:53:34.979Z,100.00
2018-12-14T21:56:04.087Z,100.00
2018-12-14T21:58:33.194Z,100.00
2018-12-14T22:01:02.310Z,100.00
2018-12-14T22:03:31.407Z,100.00
2018-12-14T22:06:00.549Z,100.00
2018-12-14T22:08:29.642Z,100.00
2018-12-14T22:10:58.754Z,100.00
2018-12-14T22:13:27.876Z,100.00
2018-12-14T22:15:57.014Z,100.00
2018-12-14T22:18:26.125Z,100.00
2018-12-14T22:20:55.241Z,100.00
2018-12-14T22:23:24.366Z,100.00
2018-12-14T22:25:53.471Z,100.00
2018-12-14T22:28:22.566Z,100.00
2018-12-14T22:30:51.717Z,100.00
2018-12-14T22:33:20.824Z,100.00
2018-12-14T22:35:49.980Z,100.00
2018-12-14T22:38:19.481Z,100.00
2018-12-14T22:40:48.593Z,100.00
2018-12-14T22:43:17.694Z,100.00
2018-12-14T22:45:46.802Z,100.00
2018-12-14T22:48:15.890Z,100.00
2018-12-14T22:50:45.013Z,100.00
2018-12-14T22:53:14.127Z,100.00
2018-12-14T22:55:43.257Z,100.00
2018-12-14T22:58:12.341Z,100.00
2018-12-14T23:00:46.567Z,100.00
2018-12-14T23:03:15.670Z,100.00
2018-12-14T23:05:44.813Z,100.00
2018-12-14T23:08:13.939Z,100.00
2018-12-14T23:10:43.041Z,100.00
2018-12-14T23:13:12.129Z,100.00
2018-12-14T23:15:41.280Z,100.00
2018-12-14T23:18:10.370Z,100.00
2018-12-14T23:20:39.489Z,100.00
2018-12-14T23:23:08.593Z,100.00
2018-12-14T23:25:37.776Z,100.00
2018-12-14T23:28:06.854Z,100.00
2018-12-14T23:30:35.971Z,100.00
2018-12-14T23:33:05.067Z,100.00
2018-12-14T23:35:34.186Z,100.00
2018-12-14T23:38:03.311Z,100.00
2018-12-14T23:40:32.463Z,100.00
2018-12-14T23:43:01.554Z,100.00
2018-12-14T23:45:30.659Z,100.00
2018-12-14T23:47:59.748Z,100.00
2018-12-14T23:50:28.865Z,100.00
2018-12-14T23:52:57.988Z,100.00
2018-12-14T23:55:27.107Z,100.00
2018-12-14T23:57:56.229Z,100.00
